createdAt,value
2018-06-01T00:00:34.153Z,0.00
2018-06-01T00:01:34.244Z,0.00
2018-06-01T00:02:34.253Z,0.00
2018-06-01T00:03:34.305Z,0.00
2018-06-01T00:04:34.358Z,0.00
2018-06-01T00:05:34.403Z,0.00
2018-06-01T00:06:34.479Z,0.00
2018-06-01T00:07:34.505Z,0.00
2018-06-01T00:08:34.560Z,0.00
2018-06-01T00:09:34.605Z,0.00
2018-06-01T00:10:34.652Z,0.00
2018-06-01T00:11:34.747Z,0.00
2018-06-01T00:12:34.754Z,0.00
2018-06-01T00:13:34.805Z,0.00
2018-06-01T00:14:34.858Z,0.00
2018-06-01T00:15:34.903Z,0.00
2018-06-01T00:16:34.982Z,0.00
2018-06-01T00:17:35.027Z,0.00
2018-06-01T00:18:35.054Z,0.00
2018-06-01T00:19:35.104Z,0.00
2018-06-01T00:20:35.160Z,0.00
2018-06-01T00:21:35.207Z,0.00
2018-06-01T00:22:35.296Z,0.00
2018-06-01T00:23:35.306Z,0.00
2018-06-01T00:24:35.354Z,0.00
2018-06-01T00:25:35.404Z,0.00
2018-06-01T00:26:35.455Z,0.00
2018-06-01T00:27:35.529Z,0.00
2018-06-01T00:28:35.554Z,0.00
2018-06-01T00:29:35.607Z,0.00
2018-06-01T00:30:36.621Z,0.00
2018-06-01T00:31:35.705Z,0.00
2018-06-01T00:32:35.779Z,0.00
2018-06-01T00:33:35.810Z,0.00
2018-06-01T00:34:35.857Z,0.00
2018-06-01T00:35:35.903Z,0.00
2018-06-01T00:36:35.954Z,0.00
2018-06-01T00:37:36.032Z,0.00
2018-06-01T00:38:36.078Z,0.00
2018-06-01T00:39:36.110Z,0.00
2018-06-01T00:40:36.154Z,0.00
2018-06-01T00:41:36.203Z,0.00
2018-06-01T00:42:36.254Z,0.00
2018-06-01T00:43:36.337Z,0.00
2018-06-01T00:44:36.355Z,0.00
2018-06-01T00:45:36.403Z,0.00
2018-06-01T00:46:36.456Z,0.00
2018-06-01T00:47:36.507Z,0.00
2018-06-01T00:48:36.593Z,0.00
2018-06-01T00:49:36.605Z,0.00
2018-06-01T00:52:12.286Z,0.00
2018-06-01T00:53:12.311Z,0.00
2018-06-01T00:54:12.389Z,0.00
2018-06-01T00:55:12.410Z,0.00
2018-06-01T00:56:12.464Z,0.00
2018-06-01T00:57:12.510Z,0.00
2018-06-01T00:58:12.560Z,0.00
2018-06-01T00:59:12.637Z,0.00
2018-06-01T01:00:12.683Z,0.00
2018-06-01T01:01:12.709Z,0.00
2018-06-01T01:02:12.759Z,0.00
2018-06-01T01:03:12.811Z,0.00
2018-06-01T01:04:12.861Z,0.00
2018-06-01T01:05:12.933Z,0.00
2018-06-01T01:06:12.962Z,0.00
2018-06-01T01:07:13.010Z,0.00
2018-06-01T01:08:13.060Z,0.00
2018-06-01T01:09:13.109Z,0.00
2018-06-01T01:10:13.186Z,0.00
2018-06-01T01:11:13.213Z,0.00
2018-06-01T01:12:13.259Z,0.00
2018-06-01T01:13:13.311Z,0.00
2018-06-01T01:14:13.358Z,0.00
2018-06-01T01:15:13.437Z,0.00
2018-06-01T01:16:13.460Z,0.00
2018-06-01T01:17:13.510Z,0.00
2018-06-01T01:18:13.560Z,0.00
2018-06-01T01:19:13.611Z,0.00
2018-06-01T01:20:13.685Z,0.00
2018-06-01T01:21:13.731Z,0.00
2018-06-01T01:22:13.767Z,0.00
2018-06-01T01:23:13.805Z,0.00
2018-06-01T01:24:13.857Z,0.00
2018-06-01T01:25:13.938Z,0.00
2018-06-01T01:26:13.955Z,0.00
2018-06-01T01:27:14.006Z,0.00
2018-06-01T01:28:14.055Z,0.00
2018-06-01T01:29:14.107Z,0.00
2018-06-01T01:30:14.184Z,0.00
2018-06-01T01:31:14.203Z,0.00
2018-06-01T01:32:14.252Z,0.00
2018-06-01T01:33:14.302Z,0.00
2018-06-01T01:34:14.351Z,0.00
2018-06-01T01:35:14.425Z,0.00
2018-06-01T01:36:14.482Z,0.00
2018-06-01T01:37:14.503Z,0.00
2018-06-01T01:38:14.553Z,0.00
2018-06-01T01:39:14.602Z,0.00
2018-06-01T01:40:14.650Z,0.00
2018-06-01T01:41:14.732Z,0.00
2018-06-01T01:42:14.746Z,0.00
2018-06-01T01:43:14.798Z,0.00
2018-06-01T01:44:14.848Z,0.00
2018-06-01T01:45:14.897Z,0.00
2018-06-01T01:46:14.980Z,0.00
2018-06-01T01:47:14.995Z,0.00
2018-06-01T01:48:15.047Z,0.00
2018-06-01T01:49:15.095Z,0.00
2018-06-01T01:50:15.148Z,0.00
2018-06-01T01:51:15.234Z,0.00
2018-06-01T01:52:15.922Z,0.00
2018-06-01T01:53:15.295Z,0.00
2018-06-01T01:54:15.343Z,0.00
2018-06-01T01:55:15.396Z,0.00
2018-06-01T01:56:15.484Z,0.00
2018-06-01T01:57:15.492Z,0.00
2018-06-01T01:58:15.541Z,0.00
2018-06-01T01:59:15.594Z,0.00
2018-06-01T02:00:15.644Z,0.00
2018-06-01T02:01:15.714Z,0.00
2018-06-01T02:02:15.745Z,0.00
2018-06-01T02:03:15.815Z,0.00
2018-06-01T02:04:15.846Z,0.00
2018-06-01T02:05:15.896Z,0.00
2018-06-01T02:06:15.954Z,0.00
2018-06-01T02:07:16.013Z,0.00
2018-06-01T02:08:16.038Z,0.00
2018-06-01T02:09:16.088Z,0.00
2018-06-01T02:10:16.138Z,0.00
2018-06-01T02:11:16.188Z,0.00
2018-06-01T02:12:16.261Z,0.00
2018-06-01T02:13:16.286Z,0.00
2018-06-01T02:14:16.360Z,0.00
2018-06-01T02:15:16.385Z,0.00
2018-06-01T02:16:16.436Z,0.00
2018-06-01T02:17:16.487Z,0.00
2018-06-01T02:18:16.532Z,0.00
2018-06-01T02:19:16.605Z,0.00
2018-06-01T02:20:16.633Z,0.00
2018-06-01T02:21:16.684Z,0.00
2018-06-01T02:22:16.730Z,0.00
2018-06-01T02:23:16.780Z,0.00
2018-06-01T02:24:16.855Z,0.00
2018-06-01T02:25:16.880Z,0.00
2018-06-01T02:26:16.934Z,0.00
2018-06-01T02:27:16.979Z,0.00
2018-06-01T02:28:17.027Z,0.00
2018-06-01T02:29:17.101Z,0.00
2018-06-01T02:30:17.149Z,0.00
2018-06-01T02:31:17.174Z,0.00
2018-06-01T02:32:17.227Z,0.00
2018-06-01T02:33:17.275Z,0.00
2018-06-01T02:34:17.348Z,0.00
2018-06-01T02:35:17.400Z,0.00
2018-06-01T02:36:17.424Z,0.00
2018-06-01T02:37:17.471Z,0.00
2018-06-01T02:38:17.523Z,0.00
2018-06-01T02:39:17.594Z,0.00
2018-06-01T02:40:17.645Z,0.00
2018-06-01T02:41:17.669Z,0.00
2018-06-01T02:42:17.721Z,0.00
2018-06-01T02:43:17.767Z,0.00
2018-06-01T02:44:17.816Z,0.00
2018-06-01T02:45:17.894Z,0.00
2018-06-01T02:46:17.938Z,0.00
2018-06-01T02:47:17.964Z,0.00
2018-06-01T02:48:18.015Z,0.00
2018-06-01T02:49:18.067Z,0.00
2018-06-01T02:50:18.137Z,0.00
2018-06-01T02:51:18.165Z,0.00
2018-06-01T02:52:18.213Z,0.00
2018-06-01T02:53:18.261Z,0.00
2018-06-01T02:54:18.308Z,4.00
2018-06-01T02:55:18.384Z,4.00
2018-06-01T02:56:18.440Z,4.00
2018-06-01T02:57:18.460Z,4.00
2018-06-01T02:58:18.509Z,4.00
2018-06-01T02:59:18.557Z,8.00
2018-06-01T03:00:18.635Z,8.00
2018-06-01T03:01:18.655Z,8.00
2018-06-01T03:02:18.705Z,12.00
2018-06-01T03:03:18.753Z,12.00
2018-06-01T03:04:18.806Z,12.00
2018-06-01T03:05:18.875Z,12.00
2018-06-01T03:06:18.903Z,20.00
2018-06-01T03:07:18.976Z,20.00
2018-06-01T03:08:18.999Z,24.00
2018-06-01T03:09:19.053Z,28.00
2018-06-01T03:10:19.097Z,32.00
2018-06-01T03:11:19.728Z,32.00
2018-06-01T03:12:19.229Z,36.00
2018-06-01T03:13:19.245Z,44.00
2018-06-01T03:14:19.293Z,52.00
2018-06-01T03:15:19.349Z,56.00
2018-06-01T03:16:19.395Z,64.00
2018-06-01T03:17:19.468Z,76.00
2018-06-01T03:18:19.492Z,84.00
2018-06-01T03:19:19.539Z,96.00
2018-06-01T03:20:19.591Z,108.00
2018-06-01T03:21:19.665Z,120.00
2018-06-01T03:22:19.712Z,132.00
2018-06-01T03:23:19.738Z,144.00
2018-06-01T03:24:19.791Z,160.00
2018-06-01T03:25:19.838Z,172.00
2018-06-01T03:26:19.884Z,192.00
2018-06-01T03:27:19.960Z,208.00
2018-06-01T03:28:19.983Z,228.00
2018-06-01T03:29:20.034Z,244.00
2018-06-01T03:30:20.087Z,264.00
2018-06-01T03:31:20.129Z,284.00
2018-06-01T03:32:20.208Z,308.00
2018-06-01T03:33:20.232Z,332.00
2018-06-01T03:34:20.281Z,360.00
2018-06-01T03:35:20.327Z,384.00
2018-06-01T03:36:20.380Z,416.00
2018-06-01T03:37:20.449Z,444.00
2018-06-01T03:38:20.477Z,472.00
2018-06-01T03:39:20.548Z,504.00
2018-06-01T03:40:20.574Z,536.00
2018-06-01T03:41:20.629Z,560.00
2018-06-01T03:42:20.671Z,584.00
2018-06-01T03:43:20.747Z,616.00
2018-06-01T03:44:20.770Z,644.00
2018-06-01T03:45:20.820Z,676.00
2018-06-01T03:46:20.871Z,700.00
2018-06-01T03:47:20.922Z,728.00
2018-06-01T03:48:21.001Z,764.00
2018-06-01T03:49:21.018Z,804.00
2018-06-01T03:50:21.065Z,848.00
2018-06-01T03:51:21.115Z,900.00
2018-06-01T03:52:21.166Z,940.00
2018-06-01T03:53:21.245Z,952.00
2018-06-01T03:54:21.268Z,964.00
2018-06-01T03:55:21.313Z,980.00
2018-06-01T03:56:21.393Z,1000.00
2018-06-01T03:57:21.412Z,1024.00
2018-06-01T03:58:21.483Z,1036.00
2018-06-01T03:59:21.510Z,1056.00
2018-06-01T04:00:21.561Z,1072.00
2018-06-01T04:01:21.609Z,1096.00
2018-06-01T04:02:21.655Z,1124.00
2018-06-01T04:03:21.732Z,1144.00
2018-06-01T04:04:21.780Z,1172.00
2018-06-01T04:05:21.826Z,1200.00
2018-06-01T04:06:21.854Z,1232.00
2018-06-01T04:07:21.901Z,1272.00
2018-06-01T04:08:21.952Z,1308.00
2018-06-01T04:09:22.479Z,1344.00
2018-06-01T04:10:22.049Z,1372.00
2018-06-01T04:11:22.100Z,1400.00
2018-06-01T04:12:22.150Z,1428.00
2018-06-01T04:13:22.199Z,1464.00
2018-06-01T04:14:22.269Z,1492.00
2018-06-01T04:15:22.296Z,1520.00
2018-06-01T04:16:22.345Z,1556.00
2018-06-01T04:17:22.397Z,1592.00
2018-06-01T04:18:22.444Z,1636.00
2018-06-01T04:19:22.529Z,1676.00
2018-06-01T04:20:22.553Z,1716.00
2018-06-01T04:21:22.592Z,1752.00
2018-06-01T04:22:22.644Z,1796.00
2018-06-01T04:23:22.688Z,1836.00
2018-06-01T04:24:22.771Z,1880.00
2018-06-01T04:25:22.789Z,1920.00
2018-06-01T04:26:22.982Z,1972.00
2018-06-01T04:27:22.886Z,2016.00
2018-06-01T04:28:22.937Z,2064.00
2018-06-01T04:29:22.985Z,2116.00
2018-06-01T04:30:23.036Z,2176.00
2018-06-01T04:31:23.120Z,2268.00
2018-06-01T04:32:23.138Z,2352.00
2018-06-01T04:33:23.182Z,2436.00
2018-06-01T04:34:23.231Z,2508.00
2018-06-01T04:35:23.280Z,2540.00
2018-06-01T04:36:23.356Z,2552.00
2018-06-01T04:37:23.379Z,2592.00
2018-06-01T04:38:23.429Z,2652.00
2018-06-01T04:39:23.484Z,2700.00
2018-06-01T04:40:23.553Z,2752.00
2018-06-01T04:41:23.579Z,2788.00
2018-06-01T04:42:23.650Z,2844.00
2018-06-01T04:43:23.673Z,2872.00
2018-06-01T04:44:23.723Z,2860.00
2018-06-01T04:45:23.772Z,2876.00
2018-06-01T04:46:23.819Z,2924.00
2018-06-01T04:47:23.910Z,2964.00
2018-06-01T04:48:23.919Z,3036.00
2018-06-01T04:49:23.976Z,3092.00
2018-06-01T04:50:24.017Z,3140.00
2018-06-01T04:51:24.069Z,3204.00
2018-06-01T04:52:24.142Z,3272.00
2018-06-01T04:53:24.165Z,3372.00
2018-06-01T04:54:24.215Z,3500.00
2018-06-01T04:55:24.266Z,3544.00
2018-06-01T04:56:24.340Z,3572.00
2018-06-01T04:57:24.365Z,3604.00
2018-06-01T04:58:24.439Z,3632.00
2018-06-01T04:59:24.464Z,3660.00
2018-06-01T05:00:24.516Z,3684.00
2018-06-01T05:01:24.562Z,3712.00
2018-06-01T05:02:24.609Z,3740.00
2018-06-01T05:03:24.687Z,3768.00
2018-06-01T05:04:24.707Z,3804.00
2018-06-01T05:05:24.757Z,3840.00
2018-06-01T05:06:24.806Z,3876.00
2018-06-01T05:07:24.857Z,3908.00
2018-06-01T05:08:24.927Z,3940.00
2018-06-01T05:09:24.955Z,3972.00
2018-06-01T05:10:25.002Z,3996.00
2018-06-01T05:11:25.054Z,4012.00
2018-06-01T05:12:25.104Z,4040.00
2018-06-01T05:13:25.182Z,4060.00
2018-06-01T05:14:25.202Z,4100.00
2018-06-01T05:15:25.256Z,4128.00
2018-06-01T05:16:25.301Z,4184.00
2018-06-01T05:17:25.350Z,4220.00
2018-06-01T05:18:25.424Z,4256.00
2018-06-01T05:19:25.477Z,4292.00
2018-06-01T05:20:25.500Z,4324.00
2018-06-01T05:21:25.547Z,4364.00
2018-06-01T05:22:25.596Z,4408.00
2018-06-01T05:23:25.645Z,4432.00
2018-06-01T05:24:25.719Z,4476.00
2018-06-01T05:25:25.745Z,4520.00
2018-06-01T05:26:25.799Z,4564.00
2018-06-01T05:27:25.852Z,4616.00
2018-06-01T05:28:25.897Z,4668.00
2018-06-01T05:29:25.982Z,4736.00
2018-06-01T05:30:25.994Z,4796.00
2018-06-01T05:31:26.041Z,4856.00
2018-06-01T05:32:26.100Z,4912.00
2018-06-01T05:33:26.143Z,4968.00
2018-06-01T05:34:26.214Z,5020.00
2018-06-01T05:35:26.285Z,5064.00
2018-06-01T05:36:26.290Z,5124.00
2018-06-01T05:37:26.341Z,5180.00
2018-06-01T05:38:26.392Z,5236.00
2018-06-01T05:39:26.469Z,5296.00
2018-06-01T05:40:26.488Z,5360.00
2018-06-01T05:41:26.540Z,5412.00
2018-06-01T05:42:26.588Z,5456.00
2018-06-01T05:43:26.641Z,5504.00
2018-06-01T05:44:26.723Z,5544.00
2018-06-01T05:45:26.738Z,5600.00
2018-06-01T05:46:26.787Z,5676.00
2018-06-01T05:47:26.836Z,5732.00
2018-06-01T05:48:26.887Z,5784.00
2018-06-01T05:49:26.983Z,5832.00
2018-06-01T05:50:26.989Z,5860.00
2018-06-01T05:51:27.039Z,5900.00
2018-06-01T05:52:27.103Z,5964.00
2018-06-01T05:53:27.139Z,6052.00
2018-06-01T05:54:27.237Z,6136.00
2018-06-01T05:55:27.237Z,6212.00
2018-06-01T05:56:27.288Z,6292.00
2018-06-01T05:57:27.337Z,6404.00
2018-06-01T05:58:27.386Z,6500.00
2018-06-01T05:59:27.465Z,6588.00
2018-06-01T06:00:27.486Z,6680.00
2018-06-01T06:01:27.559Z,6784.00
2018-06-01T06:02:27.609Z,6872.00
2018-06-01T06:03:27.638Z,6932.00
2018-06-01T06:04:27.689Z,6980.00
2018-06-01T06:05:27.736Z,7024.00
2018-06-01T06:06:27.811Z,7064.00
2018-06-01T06:07:27.835Z,7088.00
2018-06-01T06:08:27.886Z,7116.00
2018-06-01T06:09:27.949Z,7160.00
2018-06-01T06:10:27.986Z,7208.00
2018-06-01T06:11:28.064Z,7256.00
2018-06-01T06:12:28.087Z,7312.00
2018-06-01T06:13:28.141Z,7332.00
2018-06-01T06:14:28.189Z,7344.00
2018-06-01T06:15:28.237Z,7388.00
2018-06-01T06:16:28.320Z,7432.00
2018-06-01T06:17:28.340Z,7476.00
2018-06-01T06:18:28.387Z,7504.00
2018-06-01T06:19:28.439Z,7584.00
2018-06-01T06:20:28.490Z,7652.00
2018-06-01T06:21:28.567Z,7740.00
2018-06-01T06:22:28.639Z,7880.00
2018-06-01T06:23:28.644Z,8064.00
2018-06-01T06:24:28.689Z,8272.00
2018-06-01T06:25:28.749Z,8464.00
2018-06-01T06:26:28.790Z,8644.00
2018-06-01T06:27:28.872Z,8824.00
2018-06-01T06:28:28.893Z,9000.00
2018-06-01T06:29:28.945Z,9200.00
2018-06-01T06:30:28.997Z,9064.00
2018-06-01T06:31:29.070Z,8760.00
2018-06-01T06:32:29.125Z,8956.00
2018-06-01T06:33:29.147Z,9156.00
2018-06-01T06:34:29.198Z,9444.00
2018-06-01T06:35:29.253Z,9852.00
2018-06-01T06:36:29.299Z,10204.00
2018-06-01T06:37:29.380Z,10436.00
2018-06-01T06:38:29.396Z,11028.00
2018-06-01T06:39:29.451Z,11180.00
2018-06-01T06:40:29.499Z,11080.00
2018-06-01T06:41:29.550Z,10684.00
2018-06-01T06:42:29.655Z,10164.00
2018-06-01T06:43:29.653Z,9840.00
2018-06-01T06:44:29.699Z,9880.00
2018-06-01T06:45:29.844Z,10120.00
2018-06-01T06:46:29.797Z,10096.00
2018-06-01T06:47:29.887Z,10088.00
2018-06-01T06:48:29.903Z,10144.00
2018-06-01T06:49:29.955Z,10368.00
2018-06-01T06:50:30.980Z,10736.00
2018-06-01T06:51:30.060Z,11272.00
2018-06-01T06:52:30.170Z,12072.00
2018-06-01T06:53:30.267Z,12688.00
2018-06-01T06:54:30.295Z,12764.00
2018-06-01T06:55:30.263Z,12416.00
2018-06-01T06:56:30.320Z,11508.00
2018-06-01T06:57:30.379Z,11200.00
2018-06-01T06:58:30.510Z,11220.00
2018-06-01T06:59:30.538Z,11240.00
2018-06-01T07:00:30.525Z,11204.00
2018-06-01T07:01:30.573Z,11616.00
2018-06-01T07:02:30.619Z,11968.00
2018-06-01T07:03:30.707Z,11964.00
2018-06-01T07:04:30.720Z,11840.00
2018-06-01T07:05:30.778Z,12196.00
2018-06-01T07:06:30.851Z,12304.00
2018-06-01T07:07:30.880Z,12572.00
2018-06-01T07:08:30.975Z,12864.00
2018-06-01T07:09:30.981Z,13196.00
2018-06-01T07:10:31.087Z,13880.00
2018-06-01T07:11:31.084Z,14180.00
2018-06-01T07:12:31.135Z,15488.00
2018-06-01T07:13:31.383Z,25504.00
2018-06-01T07:14:31.323Z,24608.00
2018-06-01T07:15:31.302Z,47392.00
2018-06-01T07:16:31.405Z,46528.00
2018-06-01T07:17:31.398Z,50560.00
2018-06-01T07:18:31.525Z,52512.00
2018-06-01T07:19:31.509Z,51040.00
2018-06-01T07:20:31.581Z,52576.00
2018-06-01T07:21:31.614Z,59360.00
2018-06-01T07:22:31.701Z,67488.00
2018-06-01T07:23:31.719Z,72224.00
2018-06-01T07:24:31.773Z,72544.00
2018-06-01T07:25:31.850Z,72544.00
2018-06-01T07:26:31.879Z,65536.00
2018-06-01T07:27:31.937Z,50560.00
2018-06-01T07:28:31.985Z,49216.00
2018-06-01T07:29:32.067Z,57536.00
2018-06-01T07:30:32.092Z,67616.00
2018-06-01T07:31:32.166Z,72064.00
2018-06-01T07:32:32.200Z,67168.00
2018-06-01T07:33:32.254Z,56576.00
2018-06-01T07:34:32.337Z,50752.00
2018-06-01T07:35:32.360Z,52800.00
2018-06-01T07:36:32.439Z,54208.00
2018-06-01T07:37:32.470Z,55424.00
2018-06-01T07:38:32.522Z,54752.00
2018-06-01T07:39:32.577Z,49248.00
2018-06-01T07:40:32.635Z,44864.00
2018-06-01T07:41:32.711Z,53184.00
2018-06-01T07:42:32.744Z,68416.00
2018-06-01T07:43:32.795Z,77600.00
2018-06-01T07:44:32.852Z,82752.00
2018-06-01T07:45:32.903Z,84064.00
2018-06-01T07:46:32.995Z,81152.00
2018-06-01T07:47:33.019Z,74880.00
2018-06-01T07:48:33.072Z,66528.00
2018-06-01T07:49:33.126Z,60544.00
2018-06-01T07:50:33.175Z,57696.00
2018-06-01T07:51:33.256Z,57312.00
2018-06-01T07:52:33.309Z,61216.00
2018-06-01T07:53:33.348Z,66432.00
2018-06-01T07:54:33.418Z,67072.00
2018-06-01T07:55:33.447Z,65376.00
2018-06-01T07:56:33.505Z,64128.00
2018-06-01T07:57:33.583Z,71296.00
2018-06-01T07:58:33.614Z,82080.00
2018-06-01T07:59:33.669Z,90400.00
2018-06-01T08:00:33.721Z,94112.00
2018-06-01T08:01:33.778Z,92352.00
2018-06-01T08:02:33.855Z,91456.00
2018-06-01T08:03:33.920Z,95392.00
2018-06-01T08:04:33.946Z,101536.00
2018-06-01T08:05:33.995Z,103968.00
2018-06-01T08:06:34.053Z,97984.00
2018-06-01T08:07:34.111Z,85728.00
2018-06-01T08:08:34.181Z,76896.00
2018-06-01T08:09:34.219Z,76160.00
2018-06-01T08:10:34.268Z,76704.00
2018-06-01T08:11:34.321Z,75008.00
2018-06-01T08:12:34.382Z,75808.00
2018-06-01T08:13:34.471Z,81088.00
2018-06-01T08:14:34.483Z,87872.00
2018-06-01T08:15:34.538Z,89408.00
2018-06-01T08:16:34.593Z,88000.00
2018-06-01T08:17:34.650Z,85344.00
2018-06-01T08:18:34.729Z,85792.00
2018-06-01T08:19:34.779Z,82976.00
2018-06-01T08:20:34.813Z,79872.00
2018-06-01T08:21:34.867Z,79616.00
2018-06-01T08:22:34.919Z,83840.00
2018-06-01T08:23:34.973Z,93984.00
2018-06-01T08:24:35.053Z,106944.00
2018-06-01T08:25:35.086Z,112928.00
2018-06-01T08:26:35.137Z,112128.00
2018-06-01T08:27:35.192Z,107552.00
2018-06-01T08:28:35.251Z,100128.00
2018-06-01T08:29:35.344Z,92416.00
2018-06-01T08:30:35.356Z,86304.00
2018-06-01T08:31:35.409Z,79968.00
2018-06-01T08:32:35.520Z,76320.00
2018-06-01T08:33:35.519Z,77600.00
2018-06-01T08:34:35.597Z,88704.00
2018-06-01T08:35:35.628Z,100960.00
2018-06-01T08:36:35.684Z,109120.00
2018-06-01T08:37:35.743Z,111776.00
2018-06-01T08:38:35.791Z,117984.00
2018-06-01T08:39:35.877Z,120288.00
2018-06-01T08:40:35.900Z,116928.00
2018-06-01T08:41:35.952Z,105664.00
2018-06-01T08:42:36.018Z,97216.00
2018-06-01T08:43:36.064Z,93312.00
2018-06-01T08:44:36.153Z,86880.00
2018-06-01T08:45:36.174Z,85440.00
2018-06-01T08:46:36.263Z,92768.00
2018-06-01T08:47:36.285Z,97696.00
2018-06-01T08:48:36.337Z,99008.00
2018-06-01T08:49:36.425Z,98496.00
2018-06-01T08:50:36.482Z,98720.00
2018-06-01T08:51:36.509Z,98048.00
2018-06-01T08:52:36.582Z,99424.00
2018-06-01T08:53:36.617Z,103264.00
2018-06-01T08:54:36.671Z,112640.00
2018-06-01T08:55:36.757Z,122592.00
2018-06-01T08:56:36.783Z,129056.00
2018-06-01T08:57:36.835Z,129952.00
2018-06-01T08:58:36.890Z,124448.00
2018-06-01T08:59:36.948Z,121952.00
2018-06-01T09:00:37.023Z,111648.00
2018-06-01T09:01:37.081Z,110944.00
2018-06-01T09:02:37.109Z,114016.00
2018-06-01T09:03:37.170Z,119424.00
2018-06-01T09:04:37.244Z,118688.00
2018-06-01T09:05:37.280Z,111328.00
2018-06-01T09:06:37.357Z,98784.00
2018-06-01T09:07:38.235Z,86592.00
2018-06-01T09:08:37.444Z,86720.00
2018-06-01T09:09:37.535Z,90624.00
2018-06-01T09:10:37.555Z,92032.00
2018-06-01T09:11:37.647Z,97024.00
2018-06-01T09:12:37.675Z,55616.00
2018-06-01T09:13:37.726Z,64032.00
2018-06-01T09:14:37.819Z,82880.00
2018-06-01T09:15:37.838Z,62240.00
2018-06-01T09:16:37.946Z,86464.00
2018-06-01T09:17:37.951Z,73152.00
2018-06-01T09:18:38.007Z,117568.00
2018-06-01T09:19:38.073Z,116576.00
2018-06-01T09:20:38.134Z,111008.00
2018-06-01T09:21:38.202Z,135424.00
2018-06-01T09:22:38.266Z,86912.00
2018-06-01T09:23:38.287Z,91680.00
2018-06-01T09:24:38.347Z,65632.00
2018-06-01T09:25:38.400Z,70464.00
2018-06-01T09:26:38.468Z,77952.00
2018-06-01T09:27:38.547Z,72352.00
2018-06-01T09:28:38.567Z,60928.00
2018-06-01T09:29:38.624Z,55776.00
2018-06-01T09:30:38.690Z,115296.00
2018-06-01T09:31:38.734Z,47328.00
2018-06-01T09:32:38.815Z,55616.00
2018-06-01T09:33:38.867Z,53728.00
2018-06-01T09:34:38.901Z,42880.00
2018-06-01T09:35:38.958Z,43904.00
2018-06-01T09:36:39.011Z,54144.00
2018-06-01T09:37:39.065Z,110208.00
2018-06-01T09:38:39.754Z,131680.00
2018-06-01T09:39:39.173Z,49888.00
2018-06-01T09:40:39.235Z,49472.00
2018-06-01T09:41:39.291Z,55360.00
2018-06-01T09:42:39.338Z,86944.00
2018-06-01T09:43:39.417Z,47648.00
2018-06-01T09:44:39.446Z,121344.00
2018-06-01T09:45:39.504Z,50880.00
2018-06-01T09:46:39.572Z,78048.00
2018-06-01T09:47:39.612Z,40096.00
2018-06-01T09:48:39.688Z,37504.00
2018-06-01T09:49:39.752Z,37376.00
2018-06-01T09:50:39.772Z,35520.00
2018-06-01T09:51:39.830Z,35968.00
2018-06-01T09:52:39.889Z,40512.00
2018-06-01T09:53:39.938Z,36960.00
2018-06-01T09:54:40.018Z,37760.00
2018-06-01T09:55:40.047Z,38656.00
2018-06-01T09:56:40.104Z,39680.00
2018-06-01T09:57:40.155Z,40384.00
2018-06-01T09:58:40.209Z,40800.00
2018-06-01T09:59:40.299Z,40896.00
2018-06-01T10:00:40.347Z,42240.00
2018-06-01T10:01:40.378Z,49376.00
2018-06-01T10:02:40.457Z,54048.00
2018-06-01T10:03:40.485Z,52352.00
2018-06-01T10:04:41.059Z,94304.00
2018-06-01T10:05:40.616Z,62144.00
2018-06-01T10:06:40.652Z,45792.00
2018-06-01T10:07:40.703Z,95328.00
2018-06-01T10:08:40.762Z,86528.00
2018-06-01T10:09:40.812Z,103968.00
2018-06-01T10:10:40.899Z,89792.00
2018-06-01T10:11:40.926Z,56512.00
2018-06-01T10:12:40.976Z,113792.00
2018-06-01T10:13:41.036Z,76256.00
2018-06-01T10:14:41.086Z,59808.00
2018-06-01T10:15:41.222Z,156960.00
2018-06-01T10:16:41.196Z,112032.00
2018-06-01T10:17:41.252Z,95552.00
2018-06-01T10:18:41.309Z,49344.00
2018-06-01T10:19:41.365Z,49024.00
2018-06-01T10:20:41.462Z,171584.00
2018-06-01T10:21:41.477Z,45760.00
2018-06-01T10:22:41.532Z,45760.00
2018-06-01T10:23:41.586Z,59296.00
2018-06-01T10:24:41.648Z,149632.00
2018-06-01T10:25:41.729Z,142304.00
2018-06-01T10:26:41.753Z,66016.00
2018-06-01T10:27:41.833Z,50176.00
2018-06-01T10:28:41.867Z,62560.00
2018-06-01T10:29:41.922Z,54720.00
2018-06-01T10:30:41.980Z,58368.00
2018-06-01T10:31:42.057Z,114656.00
2018-06-01T10:32:42.093Z,50784.00
2018-06-01T10:33:42.150Z,59680.00
2018-06-01T10:34:42.205Z,46432.00
2018-06-01T10:35:42.259Z,45088.00
2018-06-01T10:36:42.342Z,51264.00
2018-06-01T10:37:42.398Z,132832.00
2018-06-01T10:38:42.427Z,125120.00
2018-06-01T10:39:42.488Z,141728.00
2018-06-01T10:40:42.540Z,144608.00
2018-06-01T10:41:42.667Z,154080.00
2018-06-01T10:42:42.655Z,152224.00
2018-06-01T10:43:42.737Z,148864.00
2018-06-01T10:44:42.767Z,144480.00
2018-06-01T10:45:42.826Z,141504.00
2018-06-01T10:46:42.902Z,144448.00
2018-06-01T10:47:42.938Z,145472.00
2018-06-01T10:48:42.996Z,142112.00
2018-06-01T10:49:43.076Z,132832.00
2018-06-01T10:50:43.130Z,126112.00
2018-06-01T10:51:43.166Z,122784.00
2018-06-01T10:52:43.221Z,119040.00
2018-06-01T10:53:43.307Z,114976.00
2018-06-01T10:54:43.360Z,107264.00
2018-06-01T10:55:43.391Z,99616.00
2018-06-01T10:56:43.452Z,97888.00
2018-06-01T10:57:43.507Z,101056.00
2018-06-01T10:58:43.565Z,109664.00
2018-06-01T10:59:43.654Z,119680.00
2018-06-01T11:00:43.677Z,125088.00
2018-06-01T11:01:43.737Z,126016.00
2018-06-01T11:02:43.792Z,119456.00
2018-06-01T11:03:43.849Z,113696.00
2018-06-01T11:04:43.932Z,109344.00
2018-06-01T11:05:43.965Z,114432.00
2018-06-01T11:06:44.021Z,119296.00
2018-06-01T11:07:44.081Z,123040.00
2018-06-01T11:08:44.141Z,122944.00
2018-06-01T11:09:44.220Z,123616.00
2018-06-01T11:10:44.277Z,124640.00
2018-06-01T11:11:44.314Z,125984.00
2018-06-01T11:12:44.368Z,129664.00
2018-06-01T11:13:44.431Z,129280.00
2018-06-01T11:14:44.490Z,126112.00
2018-06-01T11:15:44.567Z,123904.00
2018-06-01T11:16:44.628Z,118688.00
2018-06-01T11:17:44.661Z,116608.00
2018-06-01T11:18:44.716Z,117152.00
2018-06-01T11:19:44.776Z,120544.00
2018-06-01T11:20:44.834Z,124512.00
2018-06-01T11:21:44.915Z,132224.00
2018-06-01T11:22:44.951Z,135936.00
2018-06-01T11:23:45.008Z,139136.00
2018-06-01T11:24:45.068Z,140032.00
2018-06-01T11:25:45.125Z,142560.00
2018-06-01T11:26:45.207Z,141280.00
2018-06-01T11:27:45.240Z,134624.00
2018-06-01T11:28:45.302Z,126656.00
2018-06-01T11:29:45.358Z,119008.00
2018-06-01T11:30:45.421Z,112928.00
2018-06-01T11:31:46.102Z,112960.00
2018-06-01T11:32:45.537Z,114336.00
2018-06-01T11:33:45.591Z,119968.00
2018-06-01T11:34:45.652Z,123712.00
2018-06-01T11:35:45.709Z,123968.00
2018-06-01T11:36:45.797Z,122144.00
2018-06-01T11:37:45.863Z,115936.00
2018-06-01T11:38:45.885Z,106176.00
2018-06-01T11:39:45.943Z,99648.00
2018-06-01T11:40:46.002Z,95168.00
2018-06-01T11:41:46.060Z,89920.00
2018-06-01T11:42:46.160Z,88064.00
2018-06-01T11:43:46.178Z,91328.00
2018-06-01T11:44:46.237Z,101888.00
2018-06-01T11:45:46.297Z,111584.00
2018-06-01T11:46:46.359Z,123648.00
2018-06-01T11:47:46.447Z,133024.00
2018-06-01T11:48:46.474Z,140832.00
2018-06-01T11:49:46.538Z,139104.00
2018-06-01T11:50:46.592Z,136480.00
2018-06-01T11:51:46.652Z,132384.00
2018-06-01T11:52:46.748Z,130880.00
2018-06-01T11:53:46.769Z,127968.00
2018-06-01T11:54:46.840Z,121408.00
2018-06-01T11:55:46.886Z,114464.00
2018-06-01T11:56:46.948Z,111840.00
2018-06-01T11:57:47.030Z,113312.00
2018-06-01T11:58:47.101Z,115296.00
2018-06-01T11:59:47.122Z,124096.00
2018-06-01T12:00:47.181Z,129888.00
2018-06-01T12:01:47.292Z,136384.00
2018-06-01T12:02:47.304Z,142816.00
2018-06-01T12:03:47.385Z,142336.00
2018-06-01T12:04:47.424Z,141952.00
2018-06-01T12:05:47.481Z,143136.00
2018-06-01T12:06:47.542Z,139552.00
2018-06-01T12:07:47.598Z,131936.00
2018-06-01T12:08:47.695Z,124480.00
2018-06-01T12:09:47.721Z,118976.00
2018-06-01T12:10:47.834Z,108640.00
2018-06-01T12:11:47.839Z,102336.00
2018-06-01T12:12:47.901Z,106080.00